sensor_id;sensor_type;location;lat;lon;timestamp;pressure;altitude;pressure_sealevel;temperature
69590;BMP180;56792;50.644;17.984;2023-04-25T00:00:07;98695.80;;;10.58
69590;BMP180;56792;50.644;17.984;2023-04-25T00:02:39;98691.20;;;10.50
69590;BMP180;56792;50.644;17.984;2023-04-25T00:05:10;98689.00;;;10.50
69590;BMP180;56792;50.644;17.984;2023-04-25T00:07:38;98685.60;;;10.48
69590;BMP180;56792;50.644;17.984;2023-04-25T00:10:09;98686.20;;;10.40
69590;BMP180;56792;50.644;17.984;2023-04-25T00:12:39;98685.20;;;10.40
69590;BMP180;56792;50.644;17.984;2023-04-25T00:15:10;98686.60;;;10.38
69590;BMP180;56792;50.644;17.984;2023-04-25T00:17:39;98691.00;;;10.32
69590;BMP180;56792;50.644;17.984;2023-04-25T00:20:10;98693.00;;;10.30
69590;BMP180;56792;50.644;17.984;2023-04-25T00:22:39;98694.40;;;10.30
69590;BMP180;56792;50.644;17.984;2023-04-25T00:25:08;98694.60;;;10.30
69590;BMP180;56792;50.644;17.984;2023-04-25T00:27:36;98687.80;;;10.20
69590;BMP180;56792;50.644;17.984;2023-04-25T00:30:10;98690.20;;;10.20
69590;BMP180;56792;50.644;17.984;2023-04-25T00:32:38;98687.80;;;10.20
69590;BMP180;56792;50.644;17.984;2023-04-25T00:35:08;98687.60;;;10.10
69590;BMP180;56792;50.644;17.984;2023-04-25T00:37:36;98685.40;;;10.10
69590;BMP180;56792;50.644;17.984;2023-04-25T00:40:09;98687.20;;;10.10
69590;BMP180;56792;50.644;17.984;2023-04-25T00:42:38;98690.60;;;10.08
69590;BMP180;56792;50.644;17.984;2023-04-25T00:45:12;98692.40;;;10.00
69590;BMP180;56792;50.644;17.984;2023-04-25T00:47:41;98695.00;;;10.00
69590;BMP180;56792;50.644;17.984;2023-04-25T00:50:11;98694.60;;;9.90
69590;BMP180;56792;50.644;17.984;2023-04-25T00:52:43;98705.00;;;9.90
69590;BMP180;56792;50.644;17.984;2023-04-25T00:55:12;98699.80;;;9.90
69590;BMP180;56792;50.644;17.984;2023-04-25T00:57:42;98696.80;;;9.90
69590;BMP180;56792;50.644;17.984;2023-04-25T01:00:13;98696.80;;;9.90
69590;BMP180;56792;50.644;17.984;2023-04-25T01:02:42;98704.80;;;9.80
69590;BMP180;56792;50.644;17.984;2023-04-25T01:05:12;98703.00;;;9.80
69590;BMP180;56792;50.644;17.984;2023-04-25T01:07:41;98706.20;;;9.80
69590;BMP180;56792;50.644;17.984;2023-04-25T01:10:10;98706.00;;;9.80
69590;BMP180;56792;50.644;17.984;2023-04-25T01:12:39;98711.60;;;9.70
69590;BMP180;56792;50.644;17.984;2023-04-25T01:15:09;98712.80;;;9.70
69590;BMP180;56792;50.644;17.984;2023-04-25T01:17:38;98711.00;;;9.70
69590;BMP180;56792;50.644;17.984;2023-04-25T01:20:10;98711.80;;;9.64
69590;BMP180;56792;50.644;17.984;2023-04-25T01:22:39;98715.60;;;9.60
69590;BMP180;56792;50.644;17.984;2023-04-25T01:25:09;98716.40;;;9.60
69590;BMP180;56792;50.644;17.984;2023-04-25T01:27:38;98721.60;;;9.60
69590;BMP180;56792;50.644;17.984;2023-04-25T01:30:10;98716.20;;;9.58
69590;BMP180;56792;50.644;17.984;2023-04-25T01:32:39;98723.80;;;9.52
69590;BMP180;56792;50.644;17.984;2023-04-25T01:35:11;98723.60;;;9.50
69590;BMP180;56792;50.644;17.984;2023-04-25T01:37:39;98729.20;;;9.50
69590;BMP180;56792;50.644;17.984;2023-04-25T01:40:11;98728.20;;;9.50
69590;BMP180;56792;50.644;17.984;2023-04-25T01:42:43;98729.00;;;9.46
69590;BMP180;56792;50.644;17.984;2023-04-25T01:45:13;98725.60;;;9.40
69590;BMP180;56792;50.644;17.984;2023-04-25T01:47:41;98727.20;;;9.40
69590;BMP180;56792;50.644;17.984;2023-04-25T01:50:12;98729.40;;;9.40
69590;BMP180;56792;50.644;17.984;2023-04-25T01:52:40;98732.00;;;9.40
69590;BMP180;56792;50.644;17.984;2023-04-25T01:55:11;98728.80;;;9.40
69590;BMP180;56792;50.644;17.984;2023-04-25T01:57:43;98722.60;;;9.36
69590;BMP180;56792;50.644;17.984;2023-04-25T02:00:14;98720.80;;;9.30
69590;BMP180;56792;50.644;17.984;2023-04-25T02:02:42;98723.80;;;9.30
69590;BMP180;56792;50.644;17.984;2023-04-25T02:05:36;98721.80;;;9.28
69590;BMP180;56792;50.644;17.984;2023-04-25T02:08:07;98724.00;;;9.20
69590;BMP180;56792;50.644;17.984;2023-04-25T02:10:37;98729.80;;;9.20
69590;BMP180;56792;50.644;17.984;2023-04-25T02:13:16;98730.80;;;9.12
69590;BMP180;56792;50.644;17.984;2023-04-25T02:16:04;98733.40;;;9.10
69590;BMP180;56792;50.644;17.984;2023-04-25T02:18:33;98730.80;;;9.10
69590;BMP180;56792;50.644;17.984;2023-04-25T02:21:01;98732.40;;;9.10
69590;BMP180;56792;50.644;17.984;2023-04-25T02:23:30;98734.40;;;9.10
69590;BMP180;56792;50.644;17.984;2023-04-25T02:26:01;98736.80;;;9.02
69590;BMP180;56792;50.644;17.984;2023-04-25T02:28:30;98733.00;;;9.00
69590;BMP180;56792;50.644;17.984;2023-04-25T02:30:58;98732.00;;;9.00
69590;BMP180;56792;50.644;17.984;2023-04-25T02:33:26;98731.20;;;9.00
69590;BMP180;56792;50.644;17.984;2023-04-25T02:35:54;98735.20;;;9.00
69590;BMP180;56792;50.644;17.984;2023-04-25T02:38:23;98732.20;;;9.00
69590;BMP180;56792;50.644;17.984;2023-04-25T02:40:51;98728.20;;;9.00
69590;BMP180;56792;50.644;17.984;2023-04-25T02:43:19;98732.20;;;9.00
69590;BMP180;56792;50.644;17.984;2023-04-25T02:45:49;98731.00;;;9.00
69590;BMP180;56792;50.644;17.984;2023-04-25T02:48:17;98731.20;;;8.98
69590;BMP180;56792;50.644;17.984;2023-04-25T02:50:46;98734.40;;;8.90
69590;BMP180;56792;50.644;17.984;2023-04-25T02:53:14;98737.80;;;8.90
69590;BMP180;56792;50.644;17.984;2023-04-25T02:55:46;98738.40;;;8.90
69590;BMP180;56792;50.644;17.984;2023-04-25T02:58:15;98736.20;;;8.90
69590;BMP180;56792;50.644;17.984;2023-04-25T03:00:48;98731.00;;;8.90
69590;BMP180;56792;50.644;17.984;2023-04-25T03:03:17;98733.20;;;8.90
69590;BMP180;56792;50.644;17.984;2023-04-25T03:05:49;98734.00;;;8.90
69590;BMP180;56792;50.644;17.984;2023-04-25T03:08:19;98729.20;;;8.90
69590;BMP180;56792;50.644;17.984;2023-04-25T03:10:47;98731.00;;;8.90
69590;BMP180;56792;50.644;17.984;2023-04-25T03:13:18;98734.60;;;8.90
69590;BMP180;56792;50.644;17.984;2023-04-25T03:15:46;98728.40;;;8.90
69590;BMP180;56792;50.644;17.984;2023-04-25T03:18:14;98728.20;;;8.90
69590;BMP180;56792;50.644;17.984;2023-04-25T03:20:43;98729.20;;;8.90
69590;BMP180;56792;50.644;17.984;2023-04-25T03:23:11;98728.40;;;8.90
69590;BMP180;56792;50.644;17.984;2023-04-25T03:25:41;98723.20;;;8.90
69590;BMP180;56792;50.644;17.984;2023-04-25T03:28:09;98729.80;;;8.90
69590;BMP180;56792;50.644;17.984;2023-04-25T03:30:37;98734.00;;;8.90
69590;BMP180;56792;50.644;17.984;2023-04-25T03:33:05;98736.00;;;8.88
69590;BMP180;56792;50.644;17.984;2023-04-25T03:35:33;98735.20;;;8.80
69590;BMP180;56792;50.644;17.984;2023-04-25T03:38:02;98739.00;;;8.80
69590;BMP180;56792;50.644;17.984;2023-04-25T03:40:33;98735.20;;;8.80
69590;BMP180;56792;50.644;17.984;2023-04-25T03:43:11;98733.60;;;8.80
69590;BMP180;56792;50.644;17.984;2023-04-25T03:45:41;98739.40;;;8.80
69590;BMP180;56792;50.644;17.984;2023-04-25T03:48:09;98738.20;;;8.80
69590;BMP180;56792;50.644;17.984;2023-04-25T03:50:37;98737.40;;;8.80
69590;BMP180;56792;50.644;17.984;2023-04-25T03:53:06;98738.00;;;8.80
69590;BMP180;56792;50.644;17.984;2023-04-25T03:55:48;98737.80;;;8.80
69590;BMP180;56792;50.644;17.984;2023-04-25T03:58:16;98741.80;;;8.80
69590;BMP180;56792;50.644;17.984;2023-04-25T04:00:45;98740.20;;;8.80
69590;BMP180;56792;50.644;17.984;2023-04-25T04:03:13;98744.20;;;8.80
69590;BMP180;56792;50.644;17.984;2023-04-25T04:05:41;98747.00;;;8.80
69590;BMP180;56792;50.644;17.984;2023-04-25T04:08:10;98747.40;;;8.80
69590;BMP180;56792;50.644;17.984;2023-04-25T04:10:40;98748.60;;;8.80
69590;BMP180;56792;50.644;17.984;2023-04-25T04:13:09;98747.40;;;8.80
69590;BMP180;56792;50.644;17.984;2023-04-25T04:15:37;98749.80;;;8.74
69590;BMP180;56792;50.644;17.984;2023-04-25T04:18:05;98752.40;;;8.70
69590;BMP180;56792;50.644;17.984;2023-04-25T04:20:34;98757.00;;;8.80
69590;BMP180;56792;50.644;17.984;2023-04-25T04:23:02;98758.20;;;8.80
69590;BMP180;56792;50.644;17.984;2023-04-25T04:25:31;98758.80;;;8.80
69590;BMP180;56792;50.644;17.984;2023-04-25T04:28:21;98760.80;;;8.80
69590;BMP180;56792;50.644;17.984;2023-04-25T04:30:57;98759.80;;;8.80
69590;BMP180;56792;50.644;17.984;2023-04-25T04:33:26;98764.00;;;8.80
69590;BMP180;56792;50.644;17.984;2023-04-25T04:36:00;98758.80;;;8.80
69590;BMP180;56792;50.644;17.984;2023-04-25T04:38:30;98758.00;;;8.80
69590;BMP180;56792;50.644;17.984;2023-04-25T04:41:01;98750.00;;;8.80
69590;BMP180;56792;50.644;17.984;2023-04-25T04:43:53;98752.80;;;8.82
69590;BMP180;56792;50.644;17.984;2023-04-25T04:46:40;98747.80;;;8.90
69590;BMP180;56792;50.644;17.984;2023-04-25T04:49:22;98755.20;;;8.90
69590;BMP180;56792;50.644;17.984;2023-04-25T04:52:19;98755.00;;;8.94
69590;BMP180;56792;50.644;17.984;2023-04-25T04:55:08;98755.20;;;9.00
69590;BMP180;56792;50.644;17.984;2023-04-25T04:57:54;98755.00;;;9.00
69590;BMP180;56792;50.644;17.984;2023-04-25T05:00:33;98756.00;;;9.00
69590;BMP180;56792;50.644;17.984;2023-04-25T05:03:31;98754.80;;;9.08
69590;BMP180;56792;50.644;17.984;2023-04-25T05:06:08;98751.40;;;9.10
69590;BMP180;56792;50.644;17.984;2023-04-25T05:09:04;98752.60;;;9.10
69590;BMP180;56792;50.644;17.984;2023-04-25T05:11:47;98755.80;;;9.20
69590;BMP180;56792;50.644;17.984;2023-04-25T05:14:34;98750.20;;;9.20
69590;BMP180;56792;50.644;17.984;2023-04-25T05:17:25;98751.20;;;9.20
69590;BMP180;56792;50.644;17.984;2023-04-25T05:20:32;98754.60;;;9.20
69590;BMP180;56792;50.644;17.984;2023-04-25T05:23:15;98757.00;;;9.30
69590;BMP180;56792;50.644;17.984;2023-04-25T05:25:43;98757.40;;;9.38
69590;BMP180;56792;50.644;17.984;2023-04-25T05:28:21;98762.40;;;9.40
69590;BMP180;56792;50.644;17.984;2023-04-25T05:31:14;98759.80;;;9.48
69590;BMP180;56792;50.644;17.984;2023-04-25T05:33:49;98767.60;;;9.50
69590;BMP180;56792;50.644;17.984;2023-04-25T05:36:19;98767.40;;;9.50
69590;BMP180;56792;50.644;17.984;2023-04-25T05:38:48;98770.40;;;9.50
69590;BMP180;56792;50.644;17.984;2023-04-25T05:41:21;98765.40;;;9.50
69590;BMP180;56792;50.644;17.984;2023-04-25T05:44:10;98768.20;;;9.60
69590;BMP180;56792;50.644;17.984;2023-04-25T05:46:44;98768.40;;;9.60
69590;BMP180;56792;50.644;17.984;2023-04-25T05:49:33;98766.80;;;9.62
69590;BMP180;56792;50.644;17.984;2023-04-25T05:52:20;98766.00;;;9.70
69590;BMP180;56792;50.644;17.984;2023-04-25T05:54:52;98767.60;;;9.80
69590;BMP180;56792;50.644;17.984;2023-04-25T05:57:23;98765.60;;;9.88
69590;BMP180;56792;50.644;17.984;2023-04-25T05:59:52;98770.80;;;10.00
69590;BMP180;56792;50.644;17.984;2023-04-25T06:02:24;98769.20;;;10.10
69590;BMP180;56792;50.644;17.984;2023-04-25T06:04:52;98772.40;;;10.20
69590;BMP180;56792;50.644;17.984;2023-04-25T06:07:21;98770.80;;;10.38
69590;BMP180;56792;50.644;17.984;2023-04-25T06:09:49;98767.40;;;10.50
69590;BMP180;56792;50.644;17.984;2023-04-25T06:12:17;98771.60;;;10.60
69590;BMP180;56792;50.644;17.984;2023-04-25T06:14:47;98768.20;;;10.70
69590;BMP180;56792;50.644;17.984;2023-04-25T06:17:15;98770.80;;;10.80
69590;BMP180;56792;50.644;17.984;2023-04-25T06:19:44;98760.80;;;10.90
69590;BMP180;56792;50.644;17.984;2023-04-25T06:22:13;98770.20;;;11.00
69590;BMP180;56792;50.644;17.984;2023-04-25T06:24:42;98766.80;;;11.10
69590;BMP180;56792;50.644;17.984;2023-04-25T06:27:10;98771.20;;;11.20
69590;BMP180;56792;50.644;17.984;2023-04-25T06:29:38;98771.20;;;11.20
69590;BMP180;56792;50.644;17.984;2023-04-25T06:32:07;98768.00;;;11.30
69590;BMP180;56792;50.644;17.984;2023-04-25T06:34:35;98767.20;;;11.40
69590;BMP180;56792;50.644;17.984;2023-04-25T06:37:04;98775.60;;;11.40
69590;BMP180;56792;50.644;17.984;2023-04-25T06:39:32;98772.60;;;11.50
69590;BMP180;56792;50.644;17.984;2023-04-25T06:42:00;98771.60;;;11.60
69590;BMP180;56792;50.644;17.984;2023-04-25T06:44:51;98775.20;;;11.60
69590;BMP180;56792;50.644;17.984;2023-04-25T06:47:20;98773.00;;;11.62
69590;BMP180;56792;50.644;17.984;2023-04-25T06:49:49;98773.00;;;11.70
69590;BMP180;56792;50.644;17.984;2023-04-25T06:52:18;98778.20;;;11.70
69590;BMP180;56792;50.644;17.984;2023-04-25T06:54:46;98780.20;;;11.70
69590;BMP180;56792;50.644;17.984;2023-04-25T06:57:31;98778.40;;;11.70
69590;BMP180;56792;50.644;17.984;2023-04-25T07:00:12;98780.60;;;11.70
69590;BMP180;56792;50.644;17.984;2023-04-25T07:02:40;98774.20;;;11.78
69590;BMP180;56792;50.644;17.984;2023-04-25T07:05:11;98780.60;;;11.84
69590;BMP180;56792;50.644;17.984;2023-04-25T07:07:39;98772.20;;;11.90
69590;BMP180;56792;50.644;17.984;2023-04-25T07:10:09;98773.20;;;11.92
69590;BMP180;56792;50.644;17.984;2023-04-25T07:12:38;98770.20;;;12.00
69590;BMP180;56792;50.644;17.984;2023-04-25T07:15:09;98777.40;;;12.10
69590;BMP180;56792;50.644;17.984;2023-04-25T07:17:38;98775.40;;;12.28
69590;BMP180;56792;50.644;17.984;2023-04-25T07:20:09;98772.40;;;12.40
69590;BMP180;56792;50.644;17.984;2023-04-25T07:22:38;98774.00;;;12.50
69590;BMP180;56792;50.644;17.984;2023-04-25T07:25:09;98775.80;;;12.60
69590;BMP180;56792;50.644;17.984;2023-04-25T07:27:38;98776.80;;;12.60
69590;BMP180;56792;50.644;17.984;2023-04-25T07:30:14;98772.80;;;12.60
69590;BMP180;56792;50.644;17.984;2023-04-25T07:32:42;98773.20;;;12.60
69590;BMP180;56792;50.644;17.984;2023-04-25T07:35:11;98778.80;;;12.70
69590;BMP180;56792;50.644;17.984;2023-04-25T07:37:39;98779.60;;;12.80
69590;BMP180;56792;50.644;17.984;2023-04-25T07:40:13;98776.20;;;12.98
69590;BMP180;56792;50.644;17.984;2023-04-25T07:42:46;98779.20;;;13.06
69590;BMP180;56792;50.644;17.984;2023-04-25T07:45:18;98775.20;;;13.08
69590;BMP180;56792;50.644;17.984;2023-04-25T07:47:46;98775.40;;;13.10
69590;BMP180;56792;50.644;17.984;2023-04-25T07:50:14;98772.20;;;13.20
69590;BMP180;56792;50.644;17.984;2023-04-25T07:52:42;98774.80;;;13.20
69590;BMP180;56792;50.644;17.984;2023-04-25T07:55:25;98772.40;;;13.22
69590;BMP180;56792;50.644;17.984;2023-04-25T07:58:14;98775.00;;;13.20
69590;BMP180;56792;50.644;17.984;2023-04-25T08:00:43;98770.80;;;13.30
69590;BMP180;56792;50.644;17.984;2023-04-25T08:03:29;98778.40;;;13.38
69590;BMP180;56792;50.644;17.984;2023-04-25T08:05:57;98781.40;;;13.46
69590;BMP180;56792;50.644;17.984;2023-04-25T08:08:26;98775.60;;;13.50
69590;BMP180;56792;50.644;17.984;2023-04-25T08:10:55;98776.00;;;13.60
69590;BMP180;56792;50.644;17.984;2023-04-25T08:13:23;98780.60;;;13.70
69590;BMP180;56792;50.644;17.984;2023-04-25T08:15:51;98776.20;;;13.88
69590;BMP180;56792;50.644;17.984;2023-04-25T08:18:20;98783.40;;;14.00
69590;BMP180;56792;50.644;17.984;2023-04-25T08:20:49;98776.20;;;14.10
69590;BMP180;56792;50.644;17.984;2023-04-25T08:23:17;98782.60;;;14.10
69590;BMP180;56792;50.644;17.984;2023-04-25T08:25:54;98780.20;;;14.10
69590;BMP180;56792;50.644;17.984;2023-04-25T08:28:25;98779.20;;;14.20
69590;BMP180;56792;50.644;17.984;2023-04-25T08:30:53;98790.40;;;14.30
69590;BMP180;56792;50.644;17.984;2023-04-25T08:33:22;98788.60;;;14.30
69590;BMP180;56792;50.644;17.984;2023-04-25T08:36:06;98787.20;;;14.30
69590;BMP180;56792;50.644;17.984;2023-04-25T08:38:34;98789.80;;;14.50
69590;BMP180;56792;50.644;17.984;2023-04-25T08:41:04;98788.60;;;14.60
69590;BMP180;56792;50.644;17.984;2023-04-25T08:43:35;98793.60;;;14.72
69590;BMP180;56792;50.644;17.984;2023-04-25T08:46:03;98793.80;;;14.90
69590;BMP180;56792;50.644;17.984;2023-04-25T08:48:46;98797.40;;;15.00
69590;BMP180;56792;50.644;17.984;2023-04-25T08:51:22;98797.40;;;15.12
69590;BMP180;56792;50.644;17.984;2023-04-25T08:53:52;98797.20;;;15.30
69590;BMP180;56792;50.644;17.984;2023-04-25T08:56:21;98796.20;;;15.40
69590;BMP180;56792;50.644;17.984;2023-04-25T08:58:51;98801.20;;;15.30
69590;BMP180;56792;50.644;17.984;2023-04-25T09:01:19;98800.40;;;15.44
69590;BMP180;56792;50.644;17.984;2023-04-25T09:03:51;98799.60;;;15.66
69590;BMP180;56792;50.644;17.984;2023-04-25T09:06:20;98797.60;;;15.80
69590;BMP180;56792;50.644;17.984;2023-04-25T09:08:51;98797.20;;;15.90
69590;BMP180;56792;50.644;17.984;2023-04-25T09:11:19;98803.20;;;16.10
69590;BMP180;56792;50.644;17.984;2023-04-25T09:13:48;98802.40;;;16.20
69590;BMP180;56792;50.644;17.984;2023-04-25T09:16:24;98806.80;;;16.30
69590;BMP180;56792;50.644;17.984;2023-04-25T09:19:22;98805.00;;;16.20
69590;BMP180;56792;50.644;17.984;2023-04-25T09:21:54;98800.80;;;16.30
69590;BMP180;56792;50.644;17.984;2023-04-25T09:24:35;98805.80;;;16.50
69590;BMP180;56792;50.644;17.984;2023-04-25T09:27:08;98809.20;;;16.50
69590;BMP180;56792;50.644;17.984;2023-04-25T09:29:39;98808.60;;;16.60
69590;BMP180;56792;50.644;17.984;2023-04-25T09:32:23;98811.60;;;16.80
69590;BMP180;56792;50.644;17.984;2023-04-25T09:34:55;98819.20;;;17.00
69590;BMP180;56792;50.644;17.984;2023-04-25T09:37:26;98821.00;;;17.10
69590;BMP180;56792;50.644;17.984;2023-04-25T09:40:09;98817.60;;;17.22
69590;BMP180;56792;50.644;17.984;2023-04-25T09:42:50;98818.40;;;17.40
69590;BMP180;56792;50.644;17.984;2023-04-25T09:45:19;98818.20;;;17.34
69590;BMP180;56792;50.644;17.984;2023-04-25T09:47:48;98814.20;;;17.20
69590;BMP180;56792;50.644;17.984;2023-04-25T09:50:18;98820.40;;;17.40
69590;BMP180;56792;50.644;17.984;2023-04-25T09:53:04;98819.80;;;17.50
69590;BMP180;56792;50.644;17.984;2023-04-25T09:55:45;98816.40;;;17.50
69590;BMP180;56792;50.644;17.984;2023-04-25T09:58:15;98813.60;;;17.70
69590;BMP180;56792;50.644;17.984;2023-04-25T10:00:44;98816.80;;;17.82
69590;BMP180;56792;50.644;17.984;2023-04-25T10:03:23;98814.40;;;18.08
69590;BMP180;56792;50.644;17.984;2023-04-25T10:06:19;98816.40;;;18.12
69590;BMP180;56792;50.644;17.984;2023-04-25T10:08:51;98819.40;;;18.30
69590;BMP180;56792;50.644;17.984;2023-04-25T10:11:25;98810.40;;;18.40
69590;BMP180;56792;50.644;17.984;2023-04-25T10:13:54;98809.80;;;18.40
69590;BMP180;56792;50.644;17.984;2023-04-25T10:16:25;98807.80;;;18.18
69590;BMP180;56792;50.644;17.984;2023-04-25T10:18:53;98807.20;;;17.88
69590;BMP180;56792;50.644;17.984;2023-04-25T10:21:23;98803.80;;;17.60
69590;BMP180;56792;50.644;17.984;2023-04-25T10:23:53;98805.80;;;18.82
69590;BMP180;56792;50.644;17.984;2023-04-25T10:26:22;98801.80;;;19.74
69590;BMP180;56792;50.644;17.984;2023-04-25T10:28:58;98806.40;;;20.46
69590;BMP180;56792;50.644;17.984;2023-04-25T10:31:27;98805.20;;;20.70
69590;BMP180;56792;50.644;17.984;2023-04-25T10:33:57;98802.60;;;20.18
69590;BMP180;56792;50.644;17.984;2023-04-25T10:36:31;98798.20;;;19.90
69590;BMP180;56792;50.644;17.984;2023-04-25T10:39:05;98800.20;;;20.20
69590;BMP180;56792;50.644;17.984;2023-04-25T10:41:48;98801.00;;;20.26
69590;BMP180;56792;50.644;17.984;2023-04-25T10:44:20;98791.60;;;20.76
69590;BMP180;56792;50.644;17.984;2023-04-25T10:46:48;98795.20;;;20.84
69590;BMP180;56792;50.644;17.984;2023-04-25T10:49:32;98800.40;;;20.26
69590;BMP180;56792;50.644;17.984;2023-04-25T10:52:26;98793.20;;;19.52
69590;BMP180;56792;50.644;17.984;2023-04-25T10:54:58;98782.00;;;19.10
69590;BMP180;56792;50.644;17.984;2023-04-25T10:57:38;98784.40;;;19.00
69590;BMP180;56792;50.644;17.984;2023-04-25T11:00:14;98784.40;;;18.90
69590;BMP180;56792;50.644;17.984;2023-04-25T11:02:45;98779.60;;;18.32
69590;BMP180;56792;50.644;17.984;2023-04-25T11:05:31;98784.20;;;18.00
69590;BMP180;56792;50.644;17.984;2023-04-25T11:08:00;98781.80;;;17.50
69590;BMP180;56792;50.644;17.984;2023-04-25T11:10:30;98776.60;;;17.60
69590;BMP180;56792;50.644;17.984;2023-04-25T11:12:58;98777.20;;;17.88
69590;BMP180;56792;50.644;17.984;2023-04-25T11:15:28;98772.80;;;18.10
69590;BMP180;56792;50.644;17.984;2023-04-25T11:17:56;98777.00;;;18.10
69590;BMP180;56792;50.644;17.984;2023-04-25T11:20:27;98775.80;;;17.96
69590;BMP180;56792;50.644;17.984;2023-04-25T11:22:59;98775.00;;;17.80
69590;BMP180;56792;50.644;17.984;2023-04-25T11:25:28;98774.00;;;17.60
69590;BMP180;56792;50.644;17.984;2023-04-25T11:27:59;98774.40;;;17.80
69590;BMP180;56792;50.644;17.984;2023-04-25T11:30:28;98774.00;;;18.32
69590;BMP180;56792;50.644;17.984;2023-04-25T11:32:58;98775.00;;;19.10
69590;BMP180;56792;50.644;17.984;2023-04-25T11:35:26;98771.00;;;19.88
69590;BMP180;56792;50.644;17.984;2023-04-25T11:37:55;98776.60;;;20.10
69590;BMP180;56792;50.644;17.984;2023-04-25T11:40:23;98776.20;;;19.62
69590;BMP180;56792;50.644;17.984;2023-04-25T11:42:51;98783.80;;;19.08
69590;BMP180;56792;50.644;17.984;2023-04-25T11:45:19;98777.00;;;18.56
69590;BMP180;56792;50.644;17.984;2023-04-25T11:47:49;98783.00;;;18.18
69590;BMP180;56792;50.644;17.984;2023-04-25T11:50:17;98783.20;;;17.90
69590;BMP180;56792;50.644;17.984;2023-04-25T11:52:47;98781.60;;;17.90
69590;BMP180;56792;50.644;17.984;2023-04-25T11:55:18;98783.00;;;18.34
69590;BMP180;56792;50.644;17.984;2023-04-25T11:57:49;98780.00;;;19.18
69590;BMP180;56792;50.644;17.984;2023-04-25T12:00:21;98779.40;;;19.84
69590;BMP180;56792;50.644;17.984;2023-04-25T12:02:53;98772.80;;;20.00
69590;BMP180;56792;50.644;17.984;2023-04-25T12:05:25;98773.80;;;20.40
69590;BMP180;56792;50.644;17.984;2023-04-25T12:07:53;98775.00;;;21.00
69590;BMP180;56792;50.644;17.984;2023-04-25T12:10:23;98777.20;;;21.14
69590;BMP180;56792;50.644;17.984;2023-04-25T12:12:52;98764.60;;;21.44
69590;BMP180;56792;50.644;17.984;2023-04-25T12:15:25;98769.00;;;21.50
69590;BMP180;56792;50.644;17.984;2023-04-25T12:17:55;98784.00;;;21.54
69590;BMP180;56792;50.644;17.984;2023-04-25T12:20:25;98774.20;;;21.40
69590;BMP180;56792;50.644;17.984;2023-04-25T12:22:54;98773.60;;;21.50
69590;BMP180;56792;50.644;17.984;2023-04-25T12:25:40;98776.20;;;21.10
69590;BMP180;56792;50.644;17.984;2023-04-25T12:28:14;98784.00;;;20.44
69590;BMP180;56792;50.644;17.984;2023-04-25T12:30:57;98781.40;;;19.66
69590;BMP180;56792;50.644;17.984;2023-04-25T12:33:28;98784.40;;;18.90
69590;BMP180;56792;50.644;17.984;2023-04-25T12:35:57;98785.00;;;18.50
69590;BMP180;56792;50.644;17.984;2023-04-25T12:38:27;98787.20;;;18.20
69590;BMP180;56792;50.644;17.984;2023-04-25T12:40:57;98788.60;;;18.26
69590;BMP180;56792;50.644;17.984;2023-04-25T12:43:25;98780.00;;;19.66
69590;BMP180;56792;50.644;17.984;2023-04-25T12:45:55;98781.40;;;21.10
69590;BMP180;56792;50.644;17.984;2023-04-25T12:48:24;98779.40;;;22.24
69590;BMP180;56792;50.644;17.984;2023-04-25T12:50:53;98780.80;;;22.80
69590;BMP180;56792;50.644;17.984;2023-04-25T12:53:23;98781.80;;;22.52
69590;BMP180;56792;50.644;17.984;2023-04-25T12:55:52;98783.20;;;21.88
69590;BMP180;56792;50.644;17.984;2023-04-25T12:58:20;98776.20;;;22.06
69590;BMP180;56792;50.644;17.984;2023-04-25T13:00:48;98784.20;;;23.90
69590;BMP180;56792;50.644;17.984;2023-04-25T13:03:16;98782.20;;;23.84
69590;BMP180;56792;50.644;17.984;2023-04-25T13:05:45;98773.80;;;25.10
69590;BMP180;56792;50.644;17.984;2023-04-25T13:08:13;98774.60;;;24.76
69590;BMP180;56792;50.644;17.984;2023-04-25T13:10:42;98772.80;;;25.08
69590;BMP180;56792;50.644;17.984;2023-04-25T13:13:10;98776.80;;;24.64
69590;BMP180;56792;50.644;17.984;2023-04-25T13:15:38;98782.80;;;23.92
69590;BMP180;56792;50.644;17.984;2023-04-25T13:18:06;98769.40;;;23.60
69590;BMP180;56792;50.644;17.984;2023-04-25T13:20:35;98765.00;;;25.54
69590;BMP180;56792;50.644;17.984;2023-04-25T13:23:03;98775.20;;;27.34
69590;BMP180;56792;50.644;17.984;2023-04-25T13:25:31;98781.20;;;28.58
69590;BMP180;56792;50.644;17.984;2023-04-25T13:27:59;98782.20;;;28.84
69590;BMP180;56792;50.644;17.984;2023-04-25T13:30:28;98785.20;;;27.94
69590;BMP180;56792;50.644;17.984;2023-04-25T13:32:56;98787.60;;;26.80
69590;BMP180;56792;50.644;17.984;2023-04-25T13:35:25;98788.20;;;26.10
69590;BMP180;56792;50.644;17.984;2023-04-25T13:37:53;98781.00;;;25.40
69590;BMP180;56792;50.644;17.984;2023-04-25T13:40:22;98785.80;;;25.00
69590;BMP180;56792;50.644;17.984;2023-04-25T13:42:50;98777.00;;;24.54
69590;BMP180;56792;50.644;17.984;2023-04-25T13:45:19;98779.80;;;23.80
69590;BMP180;56792;50.644;17.984;2023-04-25T13:47:48;98780.20;;;23.40
69590;BMP180;56792;50.644;17.984;2023-04-25T13:50:16;98786.20;;;23.10
69590;BMP180;56792;50.644;17.984;2023-04-25T13:52:44;98785.40;;;22.82
69590;BMP180;56792;50.644;17.984;2023-04-25T13:55:12;98796.00;;;22.60
69590;BMP180;56792;50.644;17.984;2023-04-25T13:57:41;98793.00;;;22.20
69590;BMP180;56792;50.644;17.984;2023-04-25T14:00:12;98787.60;;;21.80
69590;BMP180;56792;50.644;17.984;2023-04-25T14:02:41;98791.40;;;21.60
69590;BMP180;56792;50.644;17.984;2023-04-25T14:05:10;98792.00;;;21.30
69590;BMP180;56792;50.644;17.984;2023-04-25T14:07:38;98799.20;;;21.10
69590;BMP180;56792;50.644;17.984;2023-04-25T14:10:08;98797.20;;;21.00
69590;BMP180;56792;50.644;17.984;2023-04-25T14:12:37;98796.20;;;21.00
69590;BMP180;56792;50.644;17.984;2023-04-25T14:15:07;98802.80;;;20.90
69590;BMP180;56792;50.644;17.984;2023-04-25T14:17:35;98809.40;;;20.80
69590;BMP180;56792;50.644;17.984;2023-04-25T14:20:06;98806.20;;;20.70
69590;BMP180;56792;50.644;17.984;2023-04-25T14:22:35;98812.80;;;20.50
69590;BMP180;56792;50.644;17.984;2023-04-25T14:25:05;98816.20;;;20.30
69590;BMP180;56792;50.644;17.984;2023-04-25T14:27:34;98813.40;;;20.30